sensor_id;sensor_type;location;lat;lon;timestamp;pressure;altitude;pressure_sealevel;temperature;humidity
40918;BME280;26644;50.248;19.032;2023-01-05T00:00:48;97685.09;;;7.77;80.24
40918;BME280;26644;50.248;19.032;2023-01-05T00:01:50;97683.72;;;7.75;80.20
40918;BME280;26644;50.248;19.032;2023-01-05T00:02:53;97672.25;;;7.78;80.06
40918;BME280;26644;50.248;19.032;2023-01-05T00:03:55;97680.75;;;7.76;80.20
40918;BME280;26644;50.248;19.032;2023-01-05T00:04:58;97677.97;;;7.82;80.17
40918;BME280;26644;50.248;19.032;2023-01-05T00:06:03;97680.97;;;7.80;79.99
40918;BME280;26644;50.248;19.032;2023-01-05T00:07:09;97675.50;;;7.80;79.77
40918;BME280;26644;50.248;19.032;2023-01-05T00:08:11;97661.31;;;7.78;80.08
40918;BME280;26644;50.248;19.032;2023-01-05T00:09:16;97658.31;;;7.80;79.82
40918;BME280;26644;50.248;19.032;2023-01-05T00:10:21;97660.75;;;7.81;79.83
40918;BME280;26644;50.248;19.032;2023-01-05T00:11:41;97670.88;;;7.81;79.70
40918;BME280;26644;50.248;19.032;2023-01-05T00:13:01;97668.66;;;7.83;79.85
40918;BME280;26644;50.248;19.032;2023-01-05T00:14:23;97668.38;;;7.84;79.74
40918;BME280;26644;50.248;19.032;2023-01-05T00:15:46;97666.78;;;7.83;79.73
40918;BME280;26644;50.248;19.032;2023-01-05T00:17:09;97659.66;;;7.87;79.53
40918;BME280;26644;50.248;19.032;2023-01-05T00:18:31;97653.63;;;7.85;79.57
40918;BME280;26644;50.248;19.032;2023-01-05T00:19:51;97642.69;;;7.85;79.17
40918;BME280;26644;50.248;19.032;2023-01-05T00:21:13;97659.34;;;7.89;79.78
40918;BME280;26644;50.248;19.032;2023-01-05T00:22:42;97645.69;;;7.89;79.20
40918;BME280;26644;50.248;19.032;2023-01-05T00:23:47;97654.16;;;7.92;78.99
40918;BME280;26644;50.248;19.032;2023-01-05T00:24:49;97641.88;;;7.90;79.07
40918;BME280;26644;50.248;19.032;2023-01-05T00:25:51;97644.34;;;7.86;79.19
40918;BME280;26644;50.248;19.032;2023-01-05T00:26:55;97647.59;;;7.88;79.39
40918;BME280;26644;50.248;19.032;2023-01-05T00:27:57;97638.59;;;7.88;79.51
40918;BME280;26644;50.248;19.032;2023-01-05T00:29:00;97637.78;;;7.87;79.55
40918;BME280;26644;50.248;19.032;2023-01-05T00:30:04;97641.88;;;7.90;79.34
40918;BME280;26644;50.248;19.032;2023-01-05T00:31:08;97639.69;;;7.87;79.78
40918;BME280;26644;50.248;19.032;2023-01-05T00:32:10;97635.28;;;7.91;79.68
40918;BME280;26644;50.248;19.032;2023-01-05T00:33:15;97643.22;;;7.92;79.48
40918;BME280;26644;50.248;19.032;2023-01-05T00:34:17;97641.00;;;8.00;79.52
40918;BME280;26644;50.248;19.032;2023-01-05T00:35:21;97641.78;;;8.00;79.12
40918;BME280;26644;50.248;19.032;2023-01-05T00:36:25;97631.16;;;7.99;79.34
40918;BME280;26644;50.248;19.032;2023-01-05T00:37:31;97637.75;;;7.92;79.13
40918;BME280;26644;50.248;19.032;2023-01-05T00:38:36;97638.84;;;7.91;79.76
40918;BME280;26644;50.248;19.032;2023-01-05T00:39:41;97628.97;;;7.95;79.80
40918;BME280;26644;50.248;19.032;2023-01-05T00:40:42;97622.16;;;7.93;79.83
40918;BME280;26644;50.248;19.032;2023-01-05T00:41:45;97634.97;;;7.98;79.28
40918;BME280;26644;50.248;19.032;2023-01-05T00:42:48;97628.97;;;8.01;79.34
40918;BME280;26644;50.248;19.032;2023-01-05T00:43:50;97628.66;;;8.02;79.04
40918;BME280;26644;50.248;19.032;2023-01-05T00:44:52;97624.28;;;8.06;78.97
40918;BME280;26644;50.248;19.032;2023-01-05T00:45:55;97626.72;;;8.08;79.28
40918;BME280;26644;50.248;19.032;2023-01-05T00:46:57;97629.44;;;8.08;78.97
40918;BME280;26644;50.248;19.032;2023-01-05T00:48:01;97627.56;;;8.08;79.29
40918;BME280;26644;50.248;19.032;2023-01-05T00:49:03;97636.00;;;8.07;79.07
40918;BME280;26644;50.248;19.032;2023-01-05T00:50:06;97627.81;;;8.07;79.03
40918;BME280;26644;50.248;19.032;2023-01-05T00:51:10;97621.81;;;8.05;79.08
40918;BME280;26644;50.248;19.032;2023-01-05T00:52:12;97616.94;;;8.02;79.49
40918;BME280;26644;50.248;19.032;2023-01-05T00:53:16;97616.66;;;8.03;79.25
40918;BME280;26644;50.248;19.032;2023-01-05T00:54:20;97630.84;;;8.05;79.03
40918;BME280;26644;50.248;19.032;2023-01-05T00:55:22;97626.19;;;8.06;79.77
40918;BME280;26644;50.248;19.032;2023-01-05T00:56:25;97630.28;;;8.08;79.39
40918;BME280;26644;50.248;19.032;2023-01-05T00:57:27;97623.69;;;8.09;79.12
40918;BME280;26644;50.248;19.032;2023-01-05T00:58:31;97619.88;;;8.10;79.36
40918;BME280;26644;50.248;19.032;2023-01-05T00:59:33;97616.84;;;8.12;79.37
40918;BME280;26644;50.248;19.032;2023-01-05T01:00:38;97622.06;;;8.14;79.54
40918;BME280;26644;50.248;19.032;2023-01-05T01:01:39;97614.66;;;8.14;79.85
40918;BME280;26644;50.248;19.032;2023-01-05T01:02:43;97616.34;;;8.10;79.91
40918;BME280;26644;50.248;19.032;2023-01-05T01:03:46;97636.28;;;8.10;79.99
40918;BME280;26644;50.248;19.032;2023-01-05T01:04:49;97614.13;;;8.07;80.27
40918;BME280;26644;50.248;19.032;2023-01-05T01:05:55;97618.53;;;8.03;81.00
40918;BME280;26644;50.248;19.032;2023-01-05T01:06:59;97620.75;;;8.01;80.83
40918;BME280;26644;50.248;19.032;2023-01-05T01:08:02;97607.59;;;8.03;80.92
40918;BME280;26644;50.248;19.032;2023-01-05T01:09:05;97604.06;;;8.02;81.18
40918;BME280;26644;50.248;19.032;2023-01-05T01:10:10;97612.00;;;7.99;81.31
40918;BME280;26644;50.248;19.032;2023-01-05T01:11:13;97603.81;;;7.99;80.87
40918;BME280;26644;50.248;19.032;2023-01-05T01:12:16;97613.94;;;7.98;81.25
40918;BME280;26644;50.248;19.032;2023-01-05T01:13:19;97604.91;;;7.98;80.90
40918;BME280;26644;50.248;19.032;2023-01-05T01:14:23;97611.22;;;7.98;81.18
40918;BME280;26644;50.248;19.032;2023-01-05T01:15:26;97610.13;;;7.94;81.48
40918;BME280;26644;50.248;19.032;2023-01-05T01:16:29;97591.53;;;7.96;81.35
40918;BME280;26644;50.248;19.032;2023-01-05T01:17:32;97598.34;;;7.99;81.11
40918;BME280;26644;50.248;19.032;2023-01-05T01:18:35;97598.66;;;7.92;81.34
40918;BME280;26644;50.248;19.032;2023-01-05T01:19:37;97598.34;;;7.99;81.20
40918;BME280;26644;50.248;19.032;2023-01-05T01:20:40;97599.19;;;7.99;80.71
40918;BME280;26644;50.248;19.032;2023-01-05T01:21:42;97585.22;;;8.01;80.64
40918;BME280;26644;50.248;19.032;2023-01-05T01:22:45;97591.50;;;8.01;80.67
40918;BME280;26644;50.248;19.032;2023-01-05T01:23:47;97572.94;;;7.98;80.46
40918;BME280;26644;50.248;19.032;2023-01-05T01:24:50;97587.13;;;8.00;80.75
40918;BME280;26644;50.248;19.032;2023-01-05T01:25:55;97581.91;;;8.04;80.84
40918;BME280;26644;50.248;19.032;2023-01-05T01:26:57;97593.41;;;8.06;80.56
40918;BME280;26644;50.248;19.032;2023-01-05T01:28:00;97586.81;;;8.07;80.52
40918;BME280;26644;50.248;19.032;2023-01-05T01:29:01;97583.53;;;8.10;80.42
40918;BME280;26644;50.248;19.032;2023-01-05T01:30:06;97582.94;;;8.13;80.00
40918;BME280;26644;50.248;19.032;2023-01-05T01:31:09;97566.53;;;8.13;80.28
40918;BME280;26644;50.248;19.032;2023-01-05T01:32:12;97569.31;;;8.08;80.20
40918;BME280;26644;50.248;19.032;2023-01-05T01:33:15;97568.19;;;8.14;79.76
40918;BME280;26644;50.248;19.032;2023-01-05T01:34:17;97576.91;;;8.16;80.00
40918;BME280;26644;50.248;19.032;2023-01-05T01:35:21;97560.22;;;8.18;80.04
40918;BME280;26644;50.248;19.032;2023-01-05T01:36:23;97552.25;;;8.21;79.90
40918;BME280;26644;50.248;19.032;2023-01-05T01:37:26;97556.91;;;8.21;80.19
40918;BME280;26644;50.248;19.032;2023-01-05T01:38:30;97561.84;;;8.19;80.37
40918;BME280;26644;50.248;19.032;2023-01-05T01:39:33;97562.13;;;8.17;80.09
40918;BME280;26644;50.248;19.032;2023-01-05T01:40:40;97568.69;;;8.16;80.56
40918;BME280;26644;50.248;19.032;2023-01-05T01:41:47;97555.84;;;8.17;79.96
40918;BME280;26644;50.248;19.032;2023-01-05T01:42:49;97544.63;;;8.18;80.25
40918;BME280;26644;50.248;19.032;2023-01-05T01:43:54;97550.38;;;8.17;80.63
40918;BME280;26644;50.248;19.032;2023-01-05T01:45:00;97543.28;;;8.16;80.38
40918;BME280;26644;50.248;19.032;2023-01-05T01:46:22;97546.56;;;8.18;80.43
40918;BME280;26644;50.248;19.032;2023-01-05T01:47:31;97544.63;;;8.18;80.54
40918;BME280;26644;50.248;19.032;2023-01-05T01:48:45;97526.28;;;8.19;80.39
40918;BME280;26644;50.248;19.032;2023-01-05T01:49:53;97528.19;;;8.23;80.57
40918;BME280;26644;50.248;19.032;2023-01-05T01:51:03;97535.53;;;8.28;80.84
40918;BME280;26644;50.248;19.032;2023-01-05T01:52:09;97530.66;;;8.20;80.71
40918;BME280;26644;50.248;19.032;2023-01-05T01:53:17;97517.28;;;8.18;81.36
40918;BME280;26644;50.248;19.032;2023-01-05T01:54:24;97524.09;;;8.21;81.00
40918;BME280;26644;50.248;19.032;2023-01-05T01:55:27;97517.25;;;8.23;81.09
40918;BME280;26644;50.248;19.032;2023-01-05T01:56:37;97525.75;;;8.22;80.75
40918;BME280;26644;50.248;19.032;2023-01-05T01:57:47;97528.69;;;8.25;81.10
40918;BME280;26644;50.248;19.032;2023-01-05T01:58:52;97516.66;;;8.26;80.90
40918;BME280;26644;50.248;19.032;2023-01-05T01:59:58;97515.13;;;8.15;81.22
40918;BME280;26644;50.248;19.032;2023-01-05T02:01:05;97509.38;;;8.17;80.98
40918;BME280;26644;50.248;19.032;2023-01-05T02:02:07;97512.44;;;8.10;81.15
40918;BME280;26644;50.248;19.032;2023-01-05T02:03:13;97510.72;;;8.19;81.17
40918;BME280;26644;50.248;19.032;2023-01-05T02:04:18;97521.38;;;8.21;80.76
40918;BME280;26644;50.248;19.032;2023-01-05T02:05:25;97517.25;;;8.23;80.38
40918;BME280;26644;50.248;19.032;2023-01-05T02:06:30;97521.03;;;8.27;80.50
40918;BME280;26644;50.248;19.032;2023-01-05T02:07:37;97516.13;;;8.30;80.38
40918;BME280;26644;50.248;19.032;2023-01-05T02:08:47;97516.13;;;8.30;80.40
40918;BME280;26644;50.248;19.032;2023-01-05T02:09:51;97514.97;;;8.31;80.34
40918;BME280;26644;50.248;19.032;2023-01-05T02:11:02;97513.59;;;8.33;80.19
40918;BME280;26644;50.248;19.032;2023-01-05T02:12:37;97524.25;;;8.35;79.77
40918;BME280;26644;50.248;19.032;2023-01-05T02:14:02;97507.03;;;8.34;79.80
40918;BME280;26644;50.248;19.032;2023-01-05T02:15:26;97503.97;;;8.41;79.64
40918;BME280;26644;50.248;19.032;2023-01-05T02:16:47;97497.41;;;8.42;79.40
40918;BME280;26644;50.248;19.032;2023-01-05T02:18:13;97495.72;;;8.46;79.03
40918;BME280;26644;50.248;19.032;2023-01-05T02:21:46;97489.91;;;8.53;78.82
40918;BME280;26644;50.248;19.032;2023-01-05T02:27:39;97499.66;;;8.64;78.71
40918;BME280;26644;50.248;19.032;2023-01-05T02:29:17;97489.25;;;8.61;78.46
40918;BME280;26644;50.248;19.032;2023-01-05T02:31:13;97478.84;;;8.63;78.34
40918;BME280;26644;50.248;19.032;2023-01-05T02:32:30;97469.31;;;8.60;78.67
40918;BME280;26644;50.248;19.032;2023-01-05T02:33:47;97476.38;;;8.67;78.48
40918;BME280;26644;50.248;19.032;2023-01-05T02:35:12;97485.66;;;8.66;78.59
40918;BME280;26644;50.248;19.032;2023-01-05T02:36:28;97481.28;;;8.65;78.65
40918;BME280;26644;50.248;19.032;2023-01-05T02:37:44;97474.19;;;8.64;79.25
40918;BME280;26644;50.248;19.032;2023-01-05T02:38:57;97485.13;;;8.64;78.96
40918;BME280;26644;50.248;19.032;2023-01-05T02:40:13;97486.97;;;8.73;78.50
40918;BME280;26644;50.248;19.032;2023-01-05T02:41:25;97480.94;;;8.71;78.67
40918;BME280;26644;50.248;19.032;2023-01-05T02:42:38;97465.88;;;8.74;78.66
40918;BME280;26644;50.248;19.032;2023-01-05T02:43:45;97469.94;;;8.76;78.49
40918;BME280;26644;50.248;19.032;2023-01-05T02:44:48;97468.59;;;8.74;78.22
40918;BME280;26644;50.248;19.032;2023-01-05T02:45:51;97476.81;;;8.74;78.83
40918;BME280;26644;50.248;19.032;2023-01-05T02:47:04;97463.13;;;8.74;78.70
40918;BME280;26644;50.248;19.032;2023-01-05T02:48:09;97466.13;;;8.77;78.65
40918;BME280;26644;50.248;19.032;2023-01-05T02:49:16;97466.91;;;8.78;78.26
40918;BME280;26644;50.248;19.032;2023-01-05T02:50:25;97467.81;;;8.73;78.76
40918;BME280;26644;50.248;19.032;2023-01-05T02:51:34;97467.28;;;8.71;78.98
40918;BME280;26644;50.248;19.032;2023-01-05T02:52:48;97457.41;;;8.70;78.97
40918;BME280;26644;50.248;19.032;2023-01-05T02:54:03;97449.50;;;8.69;79.10
40918;BME280;26644;50.248;19.032;2023-01-05T02:55:14;97454.75;;;8.65;79.16
40918;BME280;26644;50.248;19.032;2023-01-05T02:56:23;97465.69;;;8.65;79.55
40918;BME280;26644;50.248;19.032;2023-01-05T02:57:35;97459.94;;;8.67;79.67
40918;BME280;26644;50.248;19.032;2023-01-05T02:59:00;97468.97;;;8.67;79.70
40918;BME280;26644;50.248;19.032;2023-01-05T03:00:09;97470.66;;;8.63;79.55
40918;BME280;26644;50.248;19.032;2023-01-05T03:01:24;97472.34;;;8.59;79.53
40918;BME280;26644;50.248;19.032;2023-01-05T03:02:33;97466.81;;;8.64;79.79
40918;BME280;26644;50.248;19.032;2023-01-05T03:03:42;97464.88;;;8.65;80.08
40918;BME280;26644;50.248;19.032;2023-01-05T03:04:53;97466.28;;;8.62;79.34
40918;BME280;26644;50.248;19.032;2023-01-05T03:06:10;97460.56;;;8.58;79.57
40918;BME280;26644;50.248;19.032;2023-01-05T03:07:26;97458.06;;;8.62;79.76
40918;BME280;26644;50.248;19.032;2023-01-05T03:08:39;97460.56;;;8.58;79.90
40918;BME280;26644;50.248;19.032;2023-01-05T03:09:49;97443.63;;;8.56;79.36
40918;BME280;26644;50.248;19.032;2023-01-05T03:10:59;97457.06;;;8.53;79.44
40918;BME280;26644;50.248;19.032;2023-01-05T03:12:28;97458.72;;;8.54;79.78
40918;BME280;26644;50.248;19.032;2023-01-05T03:14:10;97475.13;;;8.54;79.92
40918;BME280;26644;50.248;19.032;2023-01-05T03:15:24;97467.50;;;8.51;80.32
40918;BME280;26644;50.248;19.032;2023-01-05T03:16:34;97470.75;;;8.53;79.86
40918;BME280;26644;50.248;19.032;2023-01-05T03:17:47;97464.19;;;8.54;79.75
40918;BME280;26644;50.248;19.032;2023-01-05T03:18:56;97457.31;;;8.56;79.72
40918;BME280;26644;50.248;19.032;2023-01-05T03:20:23;97454.56;;;8.56;80.05
40918;BME280;26644;50.248;19.032;2023-01-05T03:21:31;97454.03;;;8.54;79.49
40918;BME280;26644;50.248;19.032;2023-01-05T03:22:54;97458.41;;;8.55;79.09
40918;BME280;26644;50.248;19.032;2023-01-05T03:24:17;97459.47;;;8.59;78.90
40918;BME280;26644;50.248;19.032;2023-01-05T03:25:39;97465.69;;;8.65;78.53
40918;BME280;26644;50.248;19.032;2023-01-05T03:27:06;97457.22;;;8.67;78.74
40918;BME280;26644;50.248;19.032;2023-01-05T03:28:34;97450.59;;;8.68;78.57
40918;BME280;26644;50.248;19.032;2023-01-05T03:30:04;97457.22;;;8.67;78.34
40918;BME280;26644;50.248;19.032;2023-01-05T03:31:32;97453.88;;;8.70;78.71
40918;BME280;26644;50.248;19.032;2023-01-05T03:33:06;97456.31;;;8.71;77.87
40918;BME280;26644;50.248;19.032;2023-01-05T03:34:43;97449.16;;;8.75;77.82
40918;BME280;26644;50.248;19.032;2023-01-05T03:36:13;97445.63;;;8.75;77.65
40918;BME280;26644;50.248;19.032;2023-01-05T03:37:25;97449.50;;;8.69;77.62
40918;BME280;26644;50.248;19.032;2023-01-05T03:38:37;97460.41;;;8.74;77.49
40918;BME280;26644;50.248;19.032;2023-01-05T03:39:46;97438.22;;;8.75;77.52
40918;BME280;26644;50.248;19.032;2023-01-05T03:40:51;97448.66;;;8.73;78.21
40918;BME280;26644;50.248;19.032;2023-01-05T03:41:59;97446.97;;;8.77;77.75
40918;BME280;26644;50.248;19.032;2023-01-05T03:43:03;97447.47;;;8.79;78.22
40918;BME280;26644;50.248;19.032;2023-01-05T03:44:08;97445.31;;;8.76;78.47
40918;BME280;26644;50.248;19.032;2023-01-05T03:45:15;97434.97;;;8.73;78.54
40918;BME280;26644;50.248;19.032;2023-01-05T03:46:21;97434.72;;;8.70;78.61
40918;BME280;26644;50.248;19.032;2023-01-05T03:47:23;97435.31;;;8.67;78.40
40918;BME280;26644;50.248;19.032;2023-01-05T03:48:28;97437.22;;;8.66;78.81
40918;BME280;26644;50.248;19.032;2023-01-05T03:49:30;97431.44;;;8.68;78.62
40918;BME280;26644;50.248;19.032;2023-01-05T03:50:34;97428.44;;;8.69;79.14
40918;BME280;26644;50.248;19.032;2023-01-05T03:51:37;97437.97;;;8.72;78.81
40918;BME280;26644;50.248;19.032;2023-01-05T03:52:40;97432.22;;;8.73;79.30
40918;BME280;26644;50.248;19.032;2023-01-05T03:53:42;97419.94;;;8.71;79.26
40918;BME280;26644;50.248;19.032;2023-01-05T03:54:45;97430.59;;;8.72;79.41
40918;BME280;26644;50.248;19.032;2023-01-05T03:55:49;97434.44;;;8.71;79.46
40918;BME280;26644;50.248;19.032;2023-01-05T03:56:52;97436.66;;;8.69;79.25
40918;BME280;26644;50.248;19.032;2023-01-05T03:57:55;97436.66;;;8.69;79.39
40918;BME280;26644;50.248;19.032;2023-01-05T03:58:58;97435.53;;;8.70;79.47
40918;BME280;26644;50.248;19.032;2023-01-05T04:00:00;97433.09;;;8.69;79.89
40918;BME280;26644;50.248;19.032;2023-01-05T04:01:07;97426.81;;;8.68;79.65
40918;BME280;26644;50.248;19.032;2023-01-05T04:02:12;97437.47;;;8.70;79.50
40918;BME280;26644;50.248;19.032;2023-01-05T04:03:13;97433.38;;;8.67;80.06
40918;BME280;26644;50.248;19.032;2023-01-05T04:04:18;97425.47;;;8.66;79.86
40918;BME280;26644;50.248;19.032;2023-01-05T04:05:21;97431.50;;;8.62;80.00
40918;BME280;26644;50.248;19.032;2023-01-05T04:06:24;97423.38;;;8.57;80.03
40918;BME280;26644;50.248;19.032;2023-01-05T04:07:26;97422.84;;;8.55;79.91
40918;BME280;26644;50.248;19.032;2023-01-05T04:08:30;97419.31;;;8.55;80.53
40918;BME280;26644;50.248;19.032;2023-01-05T04:09:33;97423.94;;;8.54;80.41
40918;BME280;26644;50.248;19.032;2023-01-05T04:10:36;97422.31;;;8.53;81.08
40918;BME280;26644;50.248;19.032;2023-01-05T04:11:39;97420.16;;;8.50;81.42
40918;BME280;26644;50.248;19.032;2023-01-05T04:12:43;97422.16;;;8.44;81.28
40918;BME280;26644;50.248;19.032;2023-01-05T04:13:48;97425.19;;;8.43;82.00
40918;BME280;26644;50.248;19.032;2023-01-05T04:14:52;97420.81;;;8.42;82.03
40918;BME280;26644;50.248;19.032;2023-01-05T04:15:54;97424.66;;;8.41;82.47
40918;BME280;26644;50.248;19.032;2023-01-05T04:16:57;97428.47;;;8.40;82.35
40918;BME280;26644;50.248;19.032;2023-01-05T04:17:59;97422.78;;;8.36;82.71
40918;BME280;26644;50.248;19.032;2023-01-05T04:19:02;97429.66;;;8.34;83.00
40918;BME280;26644;50.248;19.032;2023-01-05T04:20:07;97417.38;;;8.31;83.03
40918;BME280;26644;50.248;19.032;2023-01-05T04:21:11;97423.34;;;8.33;83.15
40918;BME280;26644;50.248;19.032;2023-01-05T04:22:14;97414.34;;;8.33;82.89
40918;BME280;26644;50.248;19.032;2023-01-05T04:23:18;97422.53;;;8.33;83.50
40918;BME280;26644;50.248;19.032;2023-01-05T04:24:20;97428.00;;;8.33;83.58
40918;BME280;26644;50.248;19.032;2023-01-05T04:25:23;97423.94;;;8.30;83.49
40918;BME280;26644;50.248;19.032;2023-01-05T04:26:26;97422.00;;;8.31;83.33
40918;BME280;26644;50.248;19.032;2023-01-05T04:27:28;97426.38;;;8.32;83.49
40918;BME280;26644;50.248;19.032;2023-01-05T04:28:31;97421.19;;;8.30;83.74
40918;BME280;26644;50.248;19.032;2023-01-05T04:29:35;97424.78;;;8.25;83.71
40918;BME280;26644;50.248;19.032;2023-01-05T04:30:39;97427.53;;;8.25;83.80
40918;BME280;26644;50.248;19.032;2023-01-05T04:31:42;97428.34;;;8.26;83.89
40918;BME280;26644;50.248;19.032;2023-01-05T04:32:47;97423.19;;;8.24;84.13
40918;BME280;26644;50.248;19.032;2023-01-05T04:33:50;97426.44;;;8.26;84.08
40918;BME280;26644;50.248;19.032;2023-01-05T04:34:56;97425.34;;;8.27;83.95
40918;BME280;26644;50.248;19.032;2023-01-05T04:35:59;97428.88;;;8.28;83.55
40918;BME280;26644;50.248;19.032;2023-01-05T04:37:05;97440.34;;;8.30;84.08
40918;BME280;26644;50.248;19.032;2023-01-05T04:38:09;97435.41;;;8.32;83.75
40918;BME280;26644;50.248;19.032;2023-01-05T04:39:13;97448.25;;;8.32;83.77
40918;BME280;26644;50.248;19.032;2023-01-05T04:40:15;97448.84;;;8.28;84.16
40918;BME280;26644;50.248;19.032;2023-01-05T04:41:24;97454.81;;;8.31;84.18
40918;BME280;26644;50.248;19.032;2023-01-05T04:42:28;97434.06;;;8.30;83.94
40918;BME280;26644;50.248;19.032;2023-01-05T04:43:32;97440.34;;;8.30;84.19
40918;BME280;26644;50.248;19.032;2023-01-05T04:44:35;97436.50;;;8.31;84.61
40918;BME280;26644;50.248;19.032;2023-01-05T04:45:40;97438.16;;;8.32;84.21
40918;BME280;26644;50.248;19.032;2023-01-05T04:46:42;97439.25;;;8.31;84.67
40918;BME280;26644;50.248;19.032;2023-01-05T04:47:46;97435.13;;;8.34;84.68
40918;BME280;26644;50.248;19.032;2023-01-05T04:48:53;97436.72;;;8.35;84.71
40918;BME280;26644;50.248;19.032;2023-01-05T04:49:56;97435.13;;;8.34;84.39
40918;BME280;26644;50.248;19.032;2023-01-05T04:51:00;97439.53;;;8.30;84.28
40918;BME280;26644;50.248;19.032;2023-01-05T04:52:07;97431.09;;;8.26;84.46
40918;BME280;26644;50.248;19.032;2023-01-05T04:53:09;97426.13;;;8.28;84.33
40918;BME280;26644;50.248;19.032;2023-01-05T04:54:16;97429.41;;;8.30;84.60
40918;BME280;26644;50.248;19.032;2023-01-05T04:55:18;97426.38;;;8.32;84.59
40918;BME280;26644;50.248;19.032;2023-01-05T04:56:21;97429.41;;;8.30;84.45
40918;BME280;26644;50.248;19.032;2023-01-05T04:57:24;97430.50;;;8.29;84.28
40918;BME280;26644;50.248;19.032;2023-01-05T04:58:27;97426.69;;;8.30;84.41
40918;BME280;26644;50.248;19.032;2023-01-05T04:59:33;97413.59;;;8.27;84.36
40918;BME280;26644;50.248;19.032;2023-01-05T05:00:37;97417.13;;;8.27;84.31
40918;BME280;26644;50.248;19.032;2023-01-05T05:01:41;97412.53;;;8.23;83.95
40918;BME280;26644;50.248;19.032;2023-01-05T05:02:46;97423.94;;;8.30;84.09
40918;BME280;26644;50.248;19.032;2023-01-05T05:03:49;97419.88;;;8.27;83.97
40918;BME280;26644;50.248;19.032;2023-01-05T05:04:55;97420.66;;;8.28;83.89
40918;BME280;26644;50.248;19.032;2023-01-05T05:05:57;97415.50;;;8.26;84.20
40918;BME280;26644;50.248;19.032;2023-01-05T05:07:03;97408.38;;;8.25;84.47
40918;BME280;26644;50.248;19.032;2023-01-05T05:08:08;97413.63;;;8.22;84.96
40918;BME280;26644;50.248;19.032;2023-01-05T05:09:11;97417.72;;;8.24;85.48
40918;BME280;26644;50.248;19.032;2023-01-05T05:10:14;97421.31;;;8.20;85.32
40918;BME280;26644;50.248;19.032;2023-01-05T05:11:18;97409.31;;;8.16;85.54
40918;BME280;26644;50.248;19.032;2023-01-05T05:12:23;97414.75;;;8.21;85.62
40918;BME280;26644;50.248;19.032;2023-01-05T05:13:26;97406.53;;;8.21;85.95
40918;BME280;26644;50.248;19.032;2023-01-05T05:14:29;97402.16;;;8.20;85.88
40918;BME280;26644;50.248;19.032;2023-01-05T05:15:34;97413.38;;;8.18;86.00
40918;BME280;26644;50.248;19.032;2023-01-05T05:16:38;97416.13;;;8.18;86.55
40918;BME280;26644;50.248;19.032;2023-01-05T05:17:42;97396.44;;;8.16;86.33
40918;BME280;26644;50.248;19.032;2023-01-05T05:18:47;97415.59;;;8.16;86.36
40918;BME280;26644;50.248;19.032;2023-01-05T05:19:54;97414.78;;;8.16;86.52
40918;BME280;26644;50.248;19.032;2023-01-05T05:20:58;97407.47;;;8.11;86.61
40918;BME280;26644;50.248;19.032;2023-01-05T05:22:06;97410.75;;;8.08;87.20
40918;BME280;26644;50.248;19.032;2023-01-05T05:23:09;97412.38;;;8.09;86.61
40918;BME280;26644;50.248;19.032;2023-01-05T05:24:11;97394.34;;;8.08;87.10
40918;BME280;26644;50.248;19.032;2023-01-05T05:25:17;97393.53;;;8.07;86.89
40918;BME280;26644;50.248;19.032;2023-01-05T05:26:22;97397.09;;;8.08;86.90
40918;BME280;26644;50.248;19.032;2023-01-05T05:27:26;97399.00;;;8.07;87.00
40918;BME280;26644;50.248;19.032;2023-01-05T05:28:27;97403.38;;;8.08;86.98
40918;BME280;26644;50.248;19.032;2023-01-05T05:29:30;97398.19;;;8.07;86.95
40918;BME280;26644;50.248;19.032;2023-01-05T05:30:32;97404.78;;;8.06;87.35
40918;BME280;26644;50.248;19.032;2023-01-05T05:31:36;97400.09;;;8.06;87.31
40918;BME280;26644;50.248;19.032;2023-01-05T05:32:38;97409.13;;;8.07;87.20
40918;BME280;26644;50.248;19.032;2023-01-05T05:33:41;97410.25;;;8.06;87.26
40918;BME280;26644;50.248;19.032;2023-01-05T05:34:42;97410.53;;;8.04;87.12
40918;BME280;26644;50.248;19.032;2023-01-05T05:35:45;97393.00;;;8.05;87.29
40918;BME280;26644;50.248;19.032;2023-01-05T05:36:48;97392.19;;;8.05;87.23
40918;BME280;26644;50.248;19.032;2023-01-05T05:37:52;97391.09;;;8.06;87.50
40918;BME280;26644;50.248;19.032;2023-01-05T05:38:54;97384.00;;;8.05;87.35
40918;BME280;26644;50.248;19.032;2023-01-05T05:39:58;97391.63;;;8.08;87.52
40918;BME280;26644;50.248;19.032;2023-01-05T05:41:00;97389.72;;;8.08;87.12
40918;BME280;26644;50.248;19.032;2023-01-05T05:42:03;97395.19;;;8.08;87.03
40918;BME280;26644;50.248;19.032;2023-01-05T05:43:06;97400.06;;;8.11;87.46
40918;BME280;26644;50.248;19.032;2023-01-05T05:44:08;97400.06;;;8.11;87.12
40918;BME280;26644;50.248;19.032;2023-01-05T05:45:10;97402.25;;;8.09;87.58
40918;BME280;26644;50.248;19.032;2023-01-05T05:46:13;97406.63;;;8.10;87.21
40918;BME280;26644;50.248;19.032;2023-01-05T05:47:16;97401.16;;;8.10;87.46
40918;BME280;26644;50.248;19.032;2023-01-05T05:48:18;97398.72;;;8.09;87.38
40918;BME280;26644;50.248;19.032;2023-01-05T05:49:20;97402.78;;;8.11;87.62
40918;BME280;26644;50.248;19.032;2023-01-05T05:50:23;97391.88;;;8.11;86.88
40918;BME280;26644;50.248;19.032;2023-01-05T05:51:25;97391.31;;;8.09;87.27
40918;BME280;26644;50.248;19.032;2023-01-05T05:52:29;97391.31;;;8.09;87.40
40918;BME280;26644;50.248;19.032;2023-01-05T05:53:33;97396.78;;;8.09;87.69
40918;BME280;26644;50.248;19.032;2023-01-05T05:54:35;97396.78;;;8.09;87.14
40918;BME280;26644;50.248;19.032;2023-01-05T05:55:37;97391.31;;;8.09;87.56
40918;BME280;26644;50.248;19.032;2023-01-05T05:56:40;97381.22;;;8.10;87.53
40918;BME280;26644;50.248;19.032;2023-01-05T05:57:42;97374.47;;;8.02;87.05
40918;BME280;26644;50.248;19.032;2023-01-05T05:58:45;97383.13;;;8.09;87.12
40918;BME280;26644;50.248;19.032;2023-01-05T05:59:47;97383.13;;;8.09;86.91
40918;BME280;26644;50.248;19.032;2023-01-05T06:00:50;97385.06;;;8.09;87.20
40918;BME280;26644;50.248;19.032;2023-01-05T06:01:52;97376.03;;;8.08;86.90
40918;BME280;26644;50.248;19.032;2023-01-05T06:02:55;97385.84;;;8.09;87.22